Time;durP1;ratioP1;P1;durP2;ratioP2;P2;SDS_P1;SDS_P2;PMS_P1;PMS_P2;Temp;Humidity;BMP_temperature;BMP_pressure;BME280_temperature;BME280_humidity;BME280_pressure;Samples;Min_cycle;Max_cycle;Signal;HPM_P1;HPM_P2
2022/04/30 00:00:29;;;;;;;20.17;13.45;;;;;;;7.54;88.63;99280.50;4221275;28;20040;-74
2022/04/30 00:02:30;;;;;;;21.42;14.63;;;;;;;7.56;89.22;99278.22;4221921;27;20027;-74
2022/04/30 00:04:30;;;;;;;22.10;14.98;;;;;;;7.52;90.05;99277.28;4221932;28;20058;-74
2022/04/30 00:06:30;;;;;;;23.55;15.23;;;;;;;7.51;89.54;99281.97;4221226;28;20047;-74
2022/04/30 00:08:31;;;;;;;18.15;13.10;;;;;;;7.49;89.33;99289.78;4221577;27;20119;-74
2022/04/30 00:10:37;;;;;;;24.95;13.93;;;;;;;7.50;89.19;99296.88;4228927;27;20294;-74
2022/04/30 00:12:37;;;;;;;21.67;14.52;;;;;;;7.49;88.68;99288.97;4221902;28;20212;-74
2022/04/30 00:14:39;;;;;;;20.25;14.65;;;;;;;7.54;88.06;99291.53;4225599;27;20120;-74
2022/04/30 00:16:40;;;;;;;22.23;14.38;;;;;;;7.57;87.67;99297.16;4220351;28;20031;-74
2022/04/30 00:18:40;;;;;;;23.48;15.35;;;;;;;7.57;88.42;99288.88;4221403;28;20394;-74
2022/04/30 00:20:46;;;;;;;22.40;14.93;;;;;;;7.61;86.46;99291.75;4221270;28;20084;-74
2022/04/30 00:22:47;;;;;;;21.75;14.77;;;;;;;7.66;85.94;99293.50;4226891;27;20059;-74
2022/04/30 00:24:48;;;;;;;22.35;15.85;;;;;;;7.63;86.84;99286.75;4222847;27;20063;-74
2022/04/30 00:26:48;;;;;;;25.92;16.10;;;;;;;7.62;87.39;99298.09;4223910;27;20032;-74
2022/04/30 00:28:49;;;;;;;20.38;14.60;;;;;;;7.58;87.07;99278.69;4230829;27;20050;-74
2022/04/30 00:30:49;;;;;;;23.08;14.15;;;;;;;7.58;87.19;99284.19;4220598;27;20115;-74
2022/04/30 00:32:51;;;;;;;21.73;15.48;;;;;;;7.57;87.61;99290.84;4220866;27;20032;-74
2022/04/30 00:34:52;;;;;;;19.80;14.07;;;;;;;7.54;87.83;99278.56;4225035;27;20054;-74
2022/04/30 00:36:52;;;;;;;20.33;14.73;;;;;;;7.54;88.51;99289.56;4222230;27;20044;-74
2022/04/30 00:38:52;;;;;;;22.92;15.40;;;;;;;7.53;89.12;99289.88;4221614;27;20079;-74
2022/04/30 00:40:52;;;;;;;20.42;15.70;;;;;;;7.49;89.85;99286.22;4221347;28;20051;-74
2022/04/30 00:42:53;;;;;;;24.67;14.82;;;;;;;7.46;90.15;99290.47;4225231;27;20055;-74
2022/04/30 00:44:53;;;;;;;20.80;15.23;;;;;;;7.45;90.02;99296.31;4226964;27;20486;-74
2022/04/30 00:46:54;;;;;;;19.52;15.05;;;;;;;7.36;91.47;99290.03;4220667;27;20465;-74
2022/04/30 00:48:57;;;;;;;22.83;14.48;;;;;;;7.35;92.50;99288.44;4229743;27;20502;-73
2022/04/30 00:50:57;;;;;;;;;;;;;;;7.30;93.07;99283.97;4231795;27;20051;-73
2022/04/30 00:52:58;;;;;;;26.33;14.02;;;;;;;7.26;91.60;99280.25;4221095;28;19939;-73
2022/04/30 00:55:02;;;;;;;20.90;13.15;;;;;;;7.24;90.86;99285.28;4220558;28;20039;-74
2022/04/30 00:57:05;;;;;;;23.08;13.80;;;;;;;7.20;91.17;99282.41;4220427;27;20138;-74
2022/04/30 00:59:06;;;;;;;22.27;15.25;;;;;;;7.18;91.25;99284.69;4222797;27;20032;-73
2022/04/30 01:01:06;;;;;;;19.67;14.13;;;;;;;7.19;91.72;99291.78;4223517;27;20352;-73
2022/04/30 01:03:06;;;;;;;22.40;14.43;;;;;;;7.17;92.60;99285.03;4226414;27;20067;-73
2022/04/30 01:05:07;;;;;;;23.42;16.40;;;;;;;7.15;93.00;99285.38;4220797;27;20209;-73
2022/04/30 01:07:09;;;;;;;20.63;13.75;;;;;;;7.17;92.61;99285.03;4222818;27;20556;-73
2022/04/30 01:09:09;;;;;;;19.80;14.27;;;;;;;7.16;90.95;99288.91;4220636;28;20040;-73
2022/04/30 01:11:10;;;;;;;19.67;14.57;;;;;;;7.17;91.43;99290.53;4219753;28;20268;-73
2022/04/30 01:13:12;;;;;;;22.52;13.90;;;;;;;7.13;92.56;99293.16;4220553;28;20067;-73
2022/04/30 01:15:13;;;;;;;26.23;14.88;;;;;;;7.14;92.46;99294.75;4220696;28;20036;-73
2022/04/30 01:17:13;;;;;;;22.02;14.65;;;;;;;7.16;93.03;99300.72;4219571;28;20063;-73
2022/04/30 01:19:19;;;;;;;24.40;16.05;;;;;;;7.14;92.50;99297.53;4220676;28;20039;-73
2022/04/30 01:21:22;;;;;;;28.33;16.38;;;;;;;7.08;92.99;99292.53;4220867;28;20666;-73
2022/04/30 01:23:23;;;;;;;24.27;15.63;;;;;;;7.07;92.69;99290.94;4226116;27;20046;-73
2022/04/30 01:25:24;;;;;;;20.27;14.48;;;;;;;7.03;92.76;99294.38;4226922;27;20130;-73
2022/04/30 01:27:26;;;;;;;23.60;14.68;;;;;;;7.02;92.71;99284.47;4220017;28;20043;-73
2022/04/30 01:29:30;;;;;;;21.40;14.93;;;;;;;7.03;92.18;99288.88;4220416;28;20518;-73
2022/04/30 01:38:27;;;;;;;22.83;15.15;;;;;;;7.00;93.43;99284.00;4221169;27;20054;-73
2022/04/30 01:40:29;;;;;;;26.42;14.68;;;;;;;6.99;94.69;99284.34;4220452;28;20444;-73
2022/04/30 01:42:35;;;;;;;25.55;16.42;;;;;;;6.94;94.70;99282.59;4220860;28;20459;-73
2022/04/30 01:44:36;;;;;;;26.52;16.20;;;;;;;6.98;94.22;99286.31;4230168;27;20059;-73
2022/04/30 01:46:37;;;;;;;19.55;14.18;;;;;;;6.98;93.87;99283.53;4219473;28;20036;-73
2022/04/30 01:48:37;;;;;;;23.33;15.07;;;;;;;6.98;93.25;99272.53;4220326;28;20047;-73
2022/04/30 01:50:38;;;;;;;21.48;14.98;;;;;;;7.01;92.99;99282.06;4220031;28;20040;-73
2022/04/30 01:52:39;;;;;;;24.15;14.90;;;;;;;7.00;92.57;99284.00;4220316;28;20046;-73
2022/04/30 01:54:39;;;;;;;22.45;14.80;;;;;;;7.02;92.78;99278.16;4225132;27;20358;-73
2022/04/30 01:56:40;;;;;;;22.02;15.52;;;;;;;7.05;92.19;99285.78;4219235;28;20522;-73
2022/04/30 01:58:40;;;;;;;23.60;15.05;;;;;;;7.06;91.69;99284.63;4226592;27;20410;-73
2022/04/30 02:00:41;;;;;;;20.50;13.93;;;;;;;7.10;91.22;99284.75;4219486;28;20040;-73
2022/04/30 02:02:44;;;;;;;23.02;13.88;;;;;;;7.14;89.93;99283.75;4219691;28;20266;-73
2022/04/30 02:04:44;;;;;;;23.98;14.82;;;;;;;7.15;89.57;99273.56;4219856;27;20054;-73
2022/04/30 02:06:46;;;;;;;23.90;13.75;;;;;;;7.17;89.93;99285.03;4218882;28;20031;-73
2022/04/30 02:08:46;;;;;;;22.60;13.80;;;;;;;7.21;89.85;99280.47;4225407;27;20043;-73
2022/04/30 02:10:48;;;;;;;22.73;14.80;;;;;;;7.23;89.70;99278.19;4223858;27;20039;-73
2022/04/30 02:12:50;;;;;;;24.40;13.35;;;;;;;7.24;88.94;99279.78;4219602;28;21002;-73
2022/04/30 02:14:53;;;;;;;21.48;13.13;;;;;;;7.23;88.38;99264.41;4219960;28;20139;-73
2022/04/30 02:16:53;;;;;;;20.00;13.23;;;;;;;7.26;88.14;99270.03;4218901;28;20066;-73
2022/04/30 02:18:55;;;;;;;16.77;11.77;;;;;;;7.28;88.03;99266.94;4220095;28;20024;-73
2022/04/30 02:20:56;;;;;;;19.67;12.93;;;;;;;7.27;87.12;99271.66;4219802;28;20036;-73
2022/04/30 02:22:58;;;;;;;18.10;11.82;;;;;;;7.30;86.34;99271.00;4220086;28;20036;-73
2022/04/30 02:24:59;;;;;;;19.63;12.18;;;;;;;7.30;85.68;99267.44;4219851;28;20118;-73
2022/04/30 02:26:59;;;;;;;15.52;10.90;;;;;;;7.28;85.52;99254.03;4219480;28;20071;-73
2022/04/30 02:29:01;;;;;;;17.45;11.30;;;;;;;7.32;85.06;99268.72;4225461;28;20047;-73
2022/04/30 02:31:01;;;;;;;18.60;11.32;;;;;;;7.31;85.14;99269.84;4225611;28;20040;-73
2022/04/30 02:33:10;;;;;;;16.73;11.43;;;;;;;7.32;85.27;99268.72;4219877;28;20046;-73
2022/04/30 02:35:10;;;;;;;17.45;10.80;;;;;;;7.31;84.85;99264.34;4219608;28;20032;-73
2022/04/30 02:37:14;;;;;;;17.58;10.80;;;;;;;7.32;85.00;99276.97;4221925;27;20360;-73
2022/04/30 02:39:14;;;;;;;17.00;10.60;;;;;;;7.26;85.54;99267.28;4219635;28;20099;-73
2022/04/30 02:41:15;;;;;;;17.13;11.10;;;;;;;7.24;85.86;99266.03;4218443;28;20047;-73
2022/04/30 02:43:16;;;;;;;18.33;11.50;;;;;;;7.23;86.43;99273.47;4218959;28;20723;-73
2022/04/30 02:45:17;;;;;;;21.80;11.98;;;;;;;7.22;86.96;99263.63;4220905;28;20455;-73
2022/04/30 02:47:17;;;;;;;20.83;10.82;;;;;;;7.19;87.16;99257.97;4218495;28;20044;-73
2022/04/30 02:49:18;;;;;;;19.25;11.82;;;;;;;7.16;87.36;99259.44;4219352;28;20209;-73
2022/04/30 02:51:18;;;;;;;20.90;11.45;;;;;;;7.15;87.23;99263.34;4219501;28;20600;-73
2022/04/30 02:53:19;;;;;;;14.48;10.07;;;;;;;7.15;87.86;99266.09;4219659;28;20040;-73
2022/04/30 02:55:20;;;;;;;16.23;10.32;;;;;;;7.11;87.79;99256.09;4220503;27;20664;-73
2022/04/30 02:57:20;;;;;;;19.42;9.98;;;;;;;7.07;88.25;99261.47;4225436;27;20046;-73
2022/04/30 03:01:39;;;;;;;15.32;8.43;;;;;;;7.04;88.23;99256.66;4222810;27;20104;-73
2022/04/30 03:03:40;;;;;;;12.88;8.80;;;;;;;7.05;87.74;99258.25;4222541;28;20044;-73
2022/04/30 03:05:45;;;;;;;14.45;8.60;;;;;;;7.06;87.81;99256.31;4222804;28;20042;-73
2022/04/30 03:07:47;;;;;;;14.00;8.07;;;;;;;7.04;87.84;99268.47;4222489;28;20472;-73
2022/04/30 03:09:47;;;;;;;15.77;9.80;;;;;;;7.02;88.25;99262.47;4225172;27;20055;-73
2022/04/30 03:11:48;;;;;;;19.85;9.50;;;;;;;7.08;88.04;99259.53;4222229;28;20221;-73
2022/04/30 03:13:48;;;;;;;15.40;9.23;;;;;;;7.02;87.71;99269.91;4230581;27;20531;-73
2022/04/30 03:15:53;;;;;;;13.02;8.82;;;;;;;7.05;88.13;99269.25;4221886;28;20057;-73
2022/04/30 03:22:31;;;;;;;15.05;9.35;;;;;;;7.06;87.03;99270.06;4222835;27;20054;-73
2022/04/30 03:24:32;;;;;;;15.82;9.55;;;;;;;7.09;86.37;99278.44;4222312;27;20059;-73
2022/04/30 03:26:32;;;;;;;14.70;10.23;;;;;;;7.09;86.29;99272.94;4221569;28;20444;-73
2022/04/30 03:28:33;;;;;;;15.15;8.65;;;;;;;7.09;86.22;99264.69;4222598;28;20693;-73
2022/04/30 03:30:34;;;;;;;14.88;8.57;;;;;;;7.11;85.80;99267.09;4226278;27;20486;-73
2022/04/30 03:32:34;;;;;;;14.90;8.63;;;;;;;7.11;86.04;99254.13;4222324;28;20493;-73
2022/04/30 03:34:34;;;;;;;17.42;9.60;;;;;;;7.12;86.17;99261.28;4222228;28;20039;-73
2022/04/30 03:36:35;;;;;;;20.05;9.65;;;;;;;7.16;86.17;99262.19;4221665;28;20429;-73
2022/04/30 03:38:36;;;;;;;18.33;10.30;;;;;;;7.15;86.84;99254.28;4222074;28;20050;-73
2022/04/30 03:40:39;;;;;;;17.95;10.60;;;;;;;7.08;87.48;99249.31;4222116;28;20039;-73
2022/04/30 03:42:40;;;;;;;15.85;9.68;;;;;;;7.11;87.16;99261.59;4222642;27;20092;-73
2022/04/30 03:44:40;;;;;;;16.65;9.70;;;;;;;7.03;88.69;99258.59;4228682;27;20043;-73
2022/04/30 03:46:40;;;;;;;17.13;10.23;;;;;;;7.00;88.97;99252.94;4223198;27;20047;-73
2022/04/30 03:48:41;;;;;;;15.65;10.13;;;;;;;6.93;89.92;99260.91;4221729;27;20036;-73
2022/04/30 03:50:42;;;;;;;18.05;10.35;;;;;;;6.87;91.15;99257.59;4221452;27;20054;-73
2022/04/30 03:52:42;;;;;;;15.77;10.82;;;;;;;6.83;92.06;99262.13;4221775;28;20032;-73
2022/04/30 03:54:42;;;;;;;18.90;11.27;;;;;;;6.81;93.21;99258.09;4221355;28;20039;-73
2022/04/30 03:56:43;;;;;;;19.15;11.88;;;;;;;6.73;93.25;99262.53;4223476;27;20427;-73
2022/04/30 03:58:44;;;;;;;18.48;11.65;;;;;;;6.72;93.54;99263.66;4221952;28;20127;-73
2022/04/30 04:00:48;;;;;;;20.85;11.52;;;;;;;6.76;93.00;99262.66;4221667;28;20483;-73
2022/04/30 04:02:48;;;;;;;16.55;11.18;;;;;;;6.75;92.72;99274.00;4223485;27;20461;-73
2022/04/30 04:04:51;;;;;;;19.63;10.93;;;;;;;6.74;92.74;99278.69;4227498;27;20071;-73
2022/04/30 04:06:52;;;;;;;;;;;;;;;6.74;92.64;99281.44;4220558;28;20673;-73
2022/04/30 04:08:52;;;;;;;16.77;10.45;;;;;;;6.80;92.60;99278.50;4228094;27;20012;-73
2022/04/30 04:10:52;;;;;;;14.35;9.82;;;;;;;6.80;92.00;99279.31;4225263;27;20531;-73
2022/04/30 04:17:37;;;;;;;15.50;9.88;;;;;;;6.80;91.91;99273.00;4221801;27;20048;-73
2022/04/30 04:17:38;;;;;;;17.27;10.07;;;;;;;6.80;93.26;99273.00;4221220;28;20043;-73
2022/04/30 04:19:38;;;;;;;18.35;10.18;;;;;;;6.72;93.98;99261.72;4224924;27;20116;-73
2022/04/30 04:21:39;;;;;;;19.00;10.55;;;;;;;6.73;94.14;99273.53;4221827;27;20052;-73
2022/04/30 04:26:00;;;;;;;17.90;10.35;;;;;;;6.69;94.68;99284.38;4221235;27;20101;-73
2022/04/30 04:28:01;;;;;;;21.75;10.43;;;;;;;6.69;94.36;99272.56;4219234;28;20036;-73
2022/04/30 04:30:01;;;;;;;19.35;9.80;;;;;;;6.70;94.11;99275.00;4221375;28;20023;-73
2022/04/30 04:32:02;;;;;;;14.13;8.90;;;;;;;6.65;95.37;99282.63;4221043;28;20032;-73
2022/04/30 04:34:02;;;;;;;16.13;9.35;;;;;;;6.70;94.67;99286.00;4221578;28;20151;-73
2022/04/30 04:36:03;;;;;;;13.75;8.88;;;;;;;6.69;94.39;99278.06;4221065;27;20023;-73
2022/04/30 04:38:03;;;;;;;13.73;8.95;;;;;;;6.68;95.35;99287.47;4220444;28;20027;-73
2022/04/30 04:40:04;;;;;;;15.48;9.38;;;;;;;6.70;95.37;99282.41;4220801;28;20355;-73
2022/04/30 04:42:06;;;;;;;17.63;10.30;;;;;;;6.70;95.39;99283.25;4220177;28;20035;-73
2022/04/30 04:44:07;;;;;;;16.17;9.55;;;;;;;6.71;96.03;99282.13;4220776;27;20032;-73
2022/04/30 04:46:08;;;;;;;16.67;10.50;;;;;;;6.71;95.97;99290.38;4221262;28;20129;-73
2022/04/30 04:48:09;;;;;;;19.05;10.73;;;;;;;6.63;96.64;99291.22;4220723;28;20024;-73
2022/04/30 04:50:14;;;;;;;15.32;9.52;;;;;;;6.68;96.07;99291.00;4220869;28;20839;-73
2022/04/30 04:52:15;;;;;;;18.25;9.05;;;;;;;6.67;96.53;99285.84;4229713;27;20114;-73
2022/04/30 04:54:15;;;;;;;20.08;9.77;;;;;;;6.73;97.07;99295.53;4222598;27;20440;-73
2022/04/30 04:56:15;;;;;;;18.27;9.75;;;;;;;6.74;96.88;99289.69;4221284;28;20023;-73
2022/04/30 04:58:16;;;;;;;14.38;9.60;;;;;;;6.78;96.63;99289.00;4219163;28;20038;-73
2022/04/30 05:00:17;;;;;;;15.07;9.13;;;;;;;6.85;96.42;99292.03;4227173;27;20245;-73
2022/04/30 05:02:18;;;;;;;16.25;9.05;;;;;;;6.87;96.07;99296.09;4220691;28;20321;-73
2022/04/30 05:04:19;;;;;;;12.32;9.35;;;;;;;6.91;95.53;99291.53;4222425;27;20024;-73
2022/04/30 05:06:20;;;;;;;15.48;9.60;;;;;;;6.95;95.71;99302.66;4225548;27;20019;-73
2022/04/30 05:08:20;;;;;;;15.27;9.45;;;;;;;6.87;95.65;99295.25;4225923;27;20483;-73
2022/04/30 05:10:20;;;;;;;16.88;9.25;;;;;;;6.93;95.45;99293.94;4220261;27;20439;-73
2022/04/30 05:12:21;;;;;;;14.50;9.02;;;;;;;6.98;95.34;99299.25;4224440;27;20155;-73
2022/04/30 05:14:21;;;;;;;13.48;8.75;;;;;;;7.06;94.79;99306.66;4220366;28;20150;-73
2022/04/30 05:16:21;;;;;;;14.00;8.98;;;;;;;6.99;95.26;99309.91;4220698;28;20035;-73
2022/04/30 05:18:22;;;;;;;17.92;8.68;;;;;;;7.11;94.86;99308.38;4220065;27;20042;-73
2022/04/30 05:20:22;;;;;;;17.05;9.25;;;;;;;7.12;93.39;99308.06;4220283;28;20063;-73
2022/04/30 05:22:22;;;;;;;13.68;8.32;;;;;;;7.22;93.97;99318.66;4224692;27;20063;-73
2022/04/30 05:24:22;;;;;;;12.98;8.32;;;;;;;7.25;94.04;99317.97;4227572;27;20378;-73
2022/04/30 05:26:23;;;;;;;14.20;8.43;;;;;;;7.18;93.28;99314.97;4220377;28;20039;-73
2022/04/30 05:28:23;;;;;;;14.70;9.27;;;;;;;7.24;92.51;99323.81;4220162;27;20062;-73
2022/04/30 05:30:24;;;;;;;15.93;9.27;;;;;;;7.26;92.28;99324.28;4220591;28;20205;-73
2022/04/30 05:32:24;;;;;;;15.00;8.38;;;;;;;7.32;91.71;99320.22;4224122;27;20043;-73
2022/04/30 05:34:24;;;;;;;14.13;9.30;;;;;;;7.26;91.77;99322.34;4222153;27;20047;-73
2022/04/30 05:36:25;;;;;;;15.43;8.90;;;;;;;7.32;92.03;99321.00;4221795;27;20078;-73
2022/04/30 05:38:25;;;;;;;14.68;8.63;;;;;;;7.33;91.93;99319.06;4221798;27;20119;-73
2022/04/30 05:40:25;;;;;;;13.73;8.90;;;;;;;7.48;91.05;99323.16;4220141;28;20472;-73
2022/04/30 05:42:26;;;;;;;16.67;8.70;;;;;;;7.61;91.02;99316.53;4220399;28;20487;-73
2022/04/30 05:44:26;;;;;;;13.93;8.73;;;;;;;7.65;90.02;99323.00;4219842;28;20130;-73
2022/04/30 05:46:26;;;;;;;14.43;9.00;;;;;;;7.74;89.48;99326.47;4132252;27;20056;-73
2022/04/30 05:48:27;;;;;;;14.52;8.45;;;;;;;7.79;88.64;99319.97;4207940;28;20039;-73
2022/04/30 05:50:27;;;;;;;16.08;8.30;;;;;;;7.77;87.97;99312.00;4220654;28;20062;-73
2022/04/30 05:52:27;;;;;;;15.23;9.18;;;;;;;7.84;87.98;99320.53;4219451;28;20460;-73
2022/04/30 05:54:28;;;;;;;16.58;8.70;;;;;;;7.84;88.73;99317.78;4220012;27;20273;-73
2022/04/30 05:56:28;;;;;;;16.73;9.68;;;;;;;8.03;88.00;99311.78;4226671;27;20058;-73
2022/04/30 05:58:28;;;;;;;16.88;8.68;;;;;;;8.16;87.98;99307.06;4221338;27;20075;-73
2022/04/30 06:00:29;;;;;;;15.57;8.80;;;;;;;8.20;87.62;99313.53;4226421;27;20031;-73
2022/04/30 06:02:29;;;;;;;12.38;8.13;;;;;;;8.30;85.46;99321.34;4220305;28;20043;-73
2022/04/30 06:04:30;;;;;;;14.45;8.80;;;;;;;8.22;86.21;99315.94;4218518;28;20031;-73
2022/04/30 06:06:30;;;;;;;12.57;8.95;;;;;;;8.15;86.34;99317.31;4218403;27;20444;-73
2022/04/30 06:08:30;;;;;;;16.48;8.77;;;;;;;8.31;84.84;99325.72;4219750;28;20096;-73
2022/04/30 06:10:31;;;;;;;13.80;8.70;;;;;;;8.28;83.87;99326.41;4222272;28;20150;-73
2022/04/30 06:12:34;;;;;;;12.05;8.07;;;;;;;8.43;84.74;99327.72;4219873;28;20499;-73
2022/04/30 06:14:34;;;;;;;15.55;9.43;;;;;;;8.59;84.19;99328.63;4219898;28;20047;-73
2022/04/30 06:16:34;;;;;;;13.60;8.95;;;;;;;8.69;83.54;99330.16;4219432;28;20051;-73
2022/04/30 06:18:35;;;;;;;14.13;8.48;;;;;;;8.69;83.91;99328.22;4219690;28;20036;-73
2022/04/30 06:20:35;;;;;;;15.23;8.80;;;;;;;8.73;83.28;99320.03;4221619;27;20365;-73
2022/04/30 06:22:36;;;;;;;12.43;8.07;;;;;;;8.84;82.90;99312.09;4219737;28;20572;-73
2022/04/30 06:24:36;;;;;;;13.13;8.73;;;;;;;9.03;82.88;99328.88;4219822;28;20526;-73
2022/04/30 06:26:37;;;;;;;13.90;8.50;;;;;;;9.06;82.08;99324.59;4219023;28;20066;-73
2022/04/30 06:28:37;;;;;;;14.77;8.85;;;;;;;8.95;80.00;99327.84;4219761;28;20043;-73
2022/04/30 06:30:39;;;;;;;15.23;8.50;;;;;;;8.88;81.26;99315.78;4221253;27;20074;-73
2022/04/30 06:32:39;;;;;;;13.52;9.05;;;;;;;8.87;81.27;99317.72;4222814;28;20044;-73
2022/04/30 06:34:40;;;;;;;14.52;9.13;;;;;;;8.84;82.29;99321.16;4224599;27;20372;-73
2022/04/30 06:36:40;;;;;;;15.57;9.43;;;;;;;8.87;82.19;99323.25;4222330;28;20042;-73
2022/04/30 06:38:40;;;;;;;17.70;9.10;;;;;;;8.87;81.46;99320.50;4223046;28;20032;-73
2022/04/30 06:40:41;;;;;;;12.75;8.63;;;;;;;8.89;82.04;99322.91;4222272;28;20434;-73
2022/04/30 06:42:42;;;;;;;17.88;9.25;;;;;;;8.97;82.59;99317.25;4223160;28;20392;-73
2022/04/30 06:44:42;;;;;;;15.75;8.57;;;;;;;9.12;80.86;99326.00;4223179;27;20039;-73
2022/04/30 06:46:43;;;;;;;16.48;9.00;;;;;;;9.18;82.08;99322.63;4220909;28;20101;-73
2022/04/30 06:48:46;;;;;;;15.13;8.85;;;;;;;9.14;80.64;99329.19;4223056;28;20229;-73
2022/04/30 06:50:48;;;;;;;15.07;9.68;;;;;;;9.10;80.18;99325.50;4223041;28;20309;-73
2022/04/30 06:57:28;;;;;;;15.68;8.80;;;;;;;9.34;81.19;99324.66;4223197;27;20051;-73
2022/04/30 06:59:31;;;;;;;13.77;8.30;;;;;;;9.31;79.32;99328.94;4222669;27;20036;-73
2022/04/30 07:03:40;;;;;;;11.60;8.27;;;;;;;9.41;79.86;99328.44;4222586;28;20047;-73
2022/04/30 07:05:41;;;;;;;13.75;8.63;;;;;;;9.40;78.50;99326.03;4222330;27;20529;-73
2022/04/30 07:07:41;;;;;;;14.88;8.70;;;;;;;9.45;79.13;99332.13;4221794;27;20124;-73
2022/04/30 07:09:42;;;;;;;12.52;8.40;;;;;;;9.45;79.35;99323.03;4222798;27;20039;-73
2022/04/30 07:11:42;;;;;;;11.57;8.10;;;;;;;9.49;79.36;99316.44;4222686;28;20105;-73
2022/04/30 07:13:44;;;;;;;16.33;9.20;;;;;;;9.57;80.10;99326.53;4225838;27;20074;-73
2022/04/30 07:15:44;;;;;;;12.73;8.30;;;;;;;9.65;79.71;99324.00;4227587;27;20048;-73
2022/04/30 07:17:46;;;;;;;12.27;8.43;;;;;;;9.74;78.97;99324.63;4221517;28;20322;-73
2022/04/30 07:19:46;;;;;;;12.07;8.35;;;;;;;9.83;78.15;99333.56;4226311;27;20039;-73
2022/04/30 07:21:47;;;;;;;18.95;8.88;;;;;;;9.74;76.79;99322.69;4225126;27;20136;-73
2022/04/30 07:23:47;;;;;;;16.35;8.52;;;;;;;9.70;78.30;99316.25;4221943;27;20462;-73
2022/04/30 07:25:48;;;;;;;13.48;8.25;;;;;;;9.78;77.52;99320.03;4222509;27;20628;-73
2022/04/30 07:27:49;;;;;;;16.25;8.65;;;;;;;9.83;78.11;99323.31;4227426;27;20054;-73
2022/04/30 07:29:49;;;;;;;12.23;8.27;;;;;;;9.91;77.79;99332.63;4227504;27;20048;-73
2022/04/30 07:31:49;;;;;;;14.43;7.95;;;;;;;9.90;77.06;99325.50;4229446;27;20046;-73
2022/04/30 07:33:51;;;;;;;12.18;8.40;;;;;;;9.93;77.92;99326.72;4222104;27;20040;-73
2022/04/30 07:35:52;;;;;;;16.30;8.80;;;;;;;9.98;77.15;99330.06;4223692;27;20082;-73
2022/04/30 07:37:52;;;;;;;14.45;8.73;;;;;;;9.94;75.90;99325.59;4223379;27;20475;-73
2022/04/30 07:39:52;;;;;;;14.85;9.63;;;;;;;9.97;77.09;99336.75;4222118;28;20044;-73
2022/04/30 07:41:54;;;;;;;15.95;9.07;;;;;;;10.01;77.50;99331.31;4221808;27;20131;-73
2022/04/30 07:43:55;;;;;;;16.55;9.23;;;;;;;9.98;76.18;99338.34;4227546;27;20118;-73
2022/04/30 07:45:55;;;;;;;13.45;8.93;;;;;;;10.12;76.70;99329.66;4222187;28;20136;-73
2022/04/30 07:47:57;;;;;;;14.50;9.20;;;;;;;10.19;76.67;99340.09;4220140;28;20198;-73
2022/04/30 07:49:57;;;;;;;13.75;8.85;;;;;;;10.28;76.98;99333.28;4222407;27;20075;-73
2022/04/30 07:51:57;;;;;;;14.43;9.18;;;;;;;10.42;75.88;99332.81;4222602;27;20556;-73
2022/04/30 07:53:58;;;;;;;13.85;9.23;;;;;;;10.41;75.13;99326.47;4223749;27;20039;-73
2022/04/30 07:55:58;;;;;;;16.15;10.30;;;;;;;10.45;75.18;99334.09;4222094;28;20089;-73
2022/04/30 07:57:59;;;;;;;16.02;9.75;;;;;;;10.58;75.66;99327.28;4221204;27;20234;-73
2022/04/30 08:00:00;;;;;;;15.95;9.77;;;;;;;10.72;74.88;99340.69;4221418;28;20128;-73
2022/04/30 08:02:00;;;;;;;19.45;11.02;;;;;;;10.84;75.21;99329.50;4221084;28;20527;-73
2022/04/30 08:04:00;;;;;;;13.05;8.52;;;;;;;10.86;73.42;99332.72;4221822;27;20144;-73
2022/04/30 08:06:01;;;;;;;14.00;8.95;;;;;;;10.80;73.76;99326.66;4223636;27;20043;-73
2022/04/30 08:08:01;;;;;;;15.85;9.25;;;;;;;10.84;72.88;99326.72;4220697;28;20489;-73
2022/04/30 08:10:02;;;;;;;14.57;8.95;;;;;;;10.95;74.09;99333.34;4224445;27;20462;-73
2022/04/30 08:12:03;;;;;;;15.27;9.63;;;;;;;11.06;72.11;99325.28;4226762;27;20525;-73
2022/04/30 08:14:03;;;;;;;15.88;8.82;;;;;;;11.25;72.60;99328.91;4228837;27;20522;-74
2022/04/30 08:16:05;;;;;;;17.10;9.38;;;;;;;11.34;73.25;99334.25;4223551;27;20025;-73
2022/04/30 08:18:05;;;;;;;14.45;9.02;;;;;;;11.43;71.59;99329.28;4226662;27;20024;-73
2022/04/30 08:20:07;;;;;;;14.52;8.82;;;;;;;11.43;71.35;99326.53;4222028;27;20560;-74
2022/04/30 08:22:07;;;;;;;15.30;9.68;;;;;;;11.21;72.14;99325.25;4221069;27;20038;-73
2022/04/30 08:24:08;;;;;;;14.48;8.90;;;;;;;11.19;72.71;99330.34;4220960;27;20023;-74
2022/04/30 08:26:08;;;;;;;12.75;8.55;;;;;;;11.25;72.09;99323.38;4221022;27;20080;-73
2022/04/30 08:28:08;;;;;;;13.57;9.27;;;;;;;11.20;73.96;99328.38;4222451;27;20450;-73
2022/04/30 08:30:10;;;;;;;13.85;9.05;;;;;;;11.16;71.16;99328.28;4221033;28;20032;-74
2022/04/30 08:32:10;;;;;;;17.27;9.77;;;;;;;11.16;72.11;99331.06;4221148;28;20102;-73
2022/04/30 08:34:11;;;;;;;14.60;8.85;;;;;;;11.20;71.42;99328.38;4228246;27;20480;-73
2022/04/30 08:36:11;;;;;;;13.88;8.60;;;;;;;11.21;72.30;99325.25;4220401;27;20475;-73
2022/04/30 08:38:11;;;;;;;12.88;9.07;;;;;;;11.28;73.49;99316.28;4223040;27;20031;-73
2022/04/30 08:40:12;;;;;;;11.48;8.57;;;;;;;11.40;73.49;99323.66;4220919;28;20020;-74
2022/04/30 08:42:13;;;;;;;15.63;9.38;;;;;;;11.37;70.67;99321.63;4221144;28;20027;-73
2022/04/30 08:44:15;;;;;;;16.55;11.00;;;;;;;11.21;71.36;99318.91;4227563;27;20575;-74
2022/04/30 08:46:20;;;;;;;16.10;9.93;;;;;;;11.30;72.64;99322.25;4223438;27;20464;-73
2022/04/30 08:48:20;;;;;;;14.05;9.45;;;;;;;11.52;72.64;99323.53;4226388;27;20046;-74
2022/04/30 08:50:20;;;;;;;15.82;9.73;;;;;;;11.65;70.20;99324.97;4225381;27;20149;-73
2022/04/30 08:52:21;;;;;;;13.52;9.27;;;;;;;11.73;70.36;99318.41;4228855;27;20154;-73
2022/04/30 08:54:21;;;;;;;13.23;9.73;;;;;;;11.84;70.53;99318.69;4220715;28;20075;-74
2022/04/30 08:56:22;;;;;;;14.75;9.32;;;;;;;11.71;70.05;99315.22;4220084;27;20382;-74
2022/04/30 08:58:23;;;;;;;13.93;8.93;;;;;;;11.79;70.22;99314.19;4220122;28;20085;-74
2022/04/30 09:00:24;;;;;;;13.88;9.63;;;;;;;11.89;70.83;99312.81;4220494;27;20550;-74
2022/04/30 09:02:24;;;;;;;17.73;9.32;;;;;;;11.96;71.31;99320.47;4220783;28;20044;-73
2022/04/30 09:04:25;;;;;;;15.50;10.38;;;;;;;11.69;69.15;99314.78;4221122;28;20132;-74
2022/04/30 09:06:26;;;;;;;14.60;8.90;;;;;;;11.82;69.52;99312.69;4220764;28;20082;-73
2022/04/30 09:08:26;;;;;;;12.18;9.13;;;;;;;11.87;69.69;99317.94;4220171;28;20459;-74
2022/04/30 09:10:29;;;;;;;16.25;8.80;;;;;;;11.90;68.50;99310.84;4219540;28;20185;-74
2022/04/30 09:12:33;;;;;;;14.95;9.05;;;;;;;11.84;68.16;99306.78;4220842;28;20045;-74
2022/04/30 09:14:34;;;;;;;14.80;9.82;;;;;;;11.88;69.35;99313.19;4220454;27;20042;-74
2022/04/30 09:16:34;;;;;;;13.13;8.95;;;;;;;11.94;69.32;99301.44;4220596;28;20138;-74
2022/04/30 09:18:39;;;;;;;17.77;10.05;;;;;;;11.97;68.12;99303.47;4223791;27;20550;-74
2022/04/30 09:20:47;;;;;;;13.95;9.73;;;;;;;11.99;70.96;99305.88;4220464;28;20296;-74
2022/04/30 09:22:47;;;;;;;16.05;9.25;;;;;;;12.05;70.03;99304.41;4224412;27;20042;-74
2022/04/30 09:24:49;;;;;;;17.58;9.85;;;;;;;12.18;67.19;99300.31;4226189;27;20043;-74
2022/04/30 09:26:49;;;;;;;14.55;9.70;;;;;;;12.17;67.50;99303.47;4220143;28;20056;-73
2022/04/30 09:28:50;;;;;;;13.10;8.82;;;;;;;12.21;65.62;99305.09;4219766;27;20419;-74
2022/04/30 09:30:50;;;;;;;16.30;10.05;;;;;;;12.09;66.00;99303.31;4225339;27;20097;-74
2022/04/30 09:32:58;;;;;;;15.50;9.35;;;;;;;11.92;67.50;99301.03;4228905;27;20039;-73
2022/04/30 09:39:35;;;;;;;12.98;9.10;;;;;;;12.15;66.11;99298.25;4224517;27;20366;-73
2022/04/30 09:41:36;;;;;;;14.63;8.70;;;;;;;12.31;66.10;99296.16;4220592;28;20051;-74
2022/04/30 09:43:37;;;;;;;11.75;7.90;;;;;;;12.41;65.34;99280.88;4223712;27;20046;-74
2022/04/30 09:45:37;;;;;;;13.57;9.20;;;;;;;12.41;64.59;99293.94;4231714;27;20427;-74
2022/04/30 09:47:38;;;;;;;14.98;9.40;;;;;;;12.45;64.18;99294.81;4220046;28;20070;-74
2022/04/30 09:54:27;;;;;;;15.88;9.35;;;;;;;12.21;65.85;99288.47;4219353;28;20267;-74
2022/04/30 09:56:41;;;;;;;14.80;9.48;;;;;;;12.36;65.43;99281.19;4219712;28;20035;-73
2022/04/30 09:58:43;;;;;;;11.65;7.88;;;;;;;12.49;65.54;99288.13;4225764;27;20043;-74
2022/04/30 10:00:44;;;;;;;;;;;;;;;12.37;63.77;99282.78;4224267;27;20133;-73